createdAt,value
2019-03-24T00:00:27.362Z,22.47
2019-03-24T00:02:59.785Z,24.13
2019-03-24T00:05:30.312Z,21.50
2019-03-24T00:08:00.843Z,22.67
2019-03-24T00:10:31.750Z,23.03
2019-03-24T00:13:03.759Z,23.27
2019-03-24T00:15:34.419Z,22.33
2019-03-24T00:18:04.956Z,21.80
2019-03-24T00:20:35.430Z,21.67
2019-03-24T00:23:05.917Z,21.47
2019-03-24T00:25:36.735Z,22.17
2019-03-24T00:28:07.309Z,21.80
2019-03-24T00:30:38.780Z,22.07
2019-03-24T00:33:09.285Z,19.93
2019-03-24T00:35:39.761Z,17.37
2019-03-24T00:38:10.610Z,15.53
2019-03-24T00:40:41.340Z,14.87
2019-03-24T00:43:11.751Z,15.60
2019-03-24T00:45:42.162Z,14.30
2019-03-24T00:48:12.641Z,15.60
2019-03-24T00:50:43.608Z,16.53
2019-03-24T00:53:14.099Z,14.87
2019-03-24T00:55:44.585Z,14.33
2019-03-24T00:58:15.446Z,14.47
2019-03-24T01:00:47.849Z,14.00
2019-03-24T01:03:18.760Z,13.97
2019-03-24T01:05:49.353Z,13.53
2019-03-24T01:08:19.848Z,12.93
2019-03-24T01:10:50.404Z,13.63
2019-03-24T01:13:21.377Z,13.50
2019-03-24T01:15:51.798Z,13.70
2019-03-24T01:18:23.082Z,12.90
2019-03-24T01:20:53.643Z,11.90
2019-03-24T01:23:24.236Z,12.07
2019-03-24T01:25:55.046Z,11.60
2019-03-24T01:28:25.644Z,11.70
2019-03-24T01:30:56.155Z,11.73
2019-03-24T01:33:26.678Z,10.63
2019-03-24T01:35:57.082Z,11.10
2019-03-24T01:38:27.547Z,11.17
2019-03-24T01:40:58.391Z,11.20
2019-03-24T01:43:29.265Z,11.70
2019-03-24T01:45:59.758Z,10.17
2019-03-24T01:48:31.494Z,10.77
2019-03-24T01:51:01.990Z,10.63
2019-03-24T01:53:32.373Z,10.87
2019-03-24T01:56:03.192Z,11.13
2019-03-24T01:58:33.594Z,10.80
2019-03-24T02:01:04.071Z,11.50
2019-03-24T02:03:34.554Z,10.43
2019-03-24T02:06:10.777Z,10.80
2019-03-24T02:08:41.273Z,10.83
2019-03-24T02:11:11.819Z,10.97
2019-03-24T02:13:42.346Z,10.43
2019-03-24T02:16:13.912Z,11.33
2019-03-24T02:18:44.487Z,10.40
2019-03-24T02:21:15.392Z,10.03
2019-03-24T02:23:45.788Z,11.07
2019-03-24T02:26:16.297Z,11.27
2019-03-24T02:28:46.708Z,11.33
2019-03-24T02:31:17.311Z,10.93
2019-03-24T02:33:47.820Z,11.47
2019-03-24T02:36:18.355Z,11.63
2019-03-24T02:38:48.767Z,11.47
2019-03-24T02:41:19.273Z,11.87
2019-03-24T02:43:49.857Z,11.57
2019-03-24T02:46:24.481Z,11.60
2019-03-24T02:48:52.638Z,12.10
2019-03-24T02:51:23.603Z,11.13
2019-03-24T02:53:54.089Z,11.77
2019-03-24T02:56:24.605Z,11.27
2019-03-24T02:58:56.182Z,11.60
2019-03-24T03:01:26.675Z,11.93
2019-03-24T03:03:57.606Z,11.57
2019-03-24T03:06:28.173Z,11.17
2019-03-24T03:08:58.731Z,12.20
2019-03-24T03:11:29.221Z,11.83
2019-03-24T03:14:00.052Z,12.70
2019-03-24T03:16:38.308Z,11.87
2019-03-24T03:19:02.872Z,12.20
2019-03-24T03:21:33.391Z,13.10
2019-03-24T03:24:03.947Z,13.37
2019-03-24T03:26:34.614Z,12.77
2019-03-24T03:29:05.164Z,11.90
2019-03-24T03:31:35.981Z,12.20
2019-03-24T03:34:07.082Z,12.73
2019-03-24T03:36:39.008Z,12.70
2019-03-24T03:39:09.615Z,13.53
2019-03-24T03:41:40.210Z,13.73
2019-03-24T03:44:10.689Z,13.90
2019-03-24T03:46:51.966Z,13.87
2019-03-24T03:49:13.440Z,14.87
2019-03-24T03:51:44.335Z,14.50
2019-03-24T03:54:15.071Z,13.67
2019-03-24T03:56:45.581Z,14.43
2019-03-24T03:59:16.400Z,14.97
2019-03-24T04:01:46.910Z,13.87
2019-03-24T04:04:17.462Z,15.30
2019-03-24T04:06:47.968Z,13.50
2019-03-24T04:09:18.455Z,15.50
2019-03-24T04:11:49.250Z,14.17
2019-03-24T04:14:19.753Z,14.70
2019-03-24T04:16:50.218Z,14.87
2019-03-24T04:19:20.667Z,15.87
2019-03-24T04:21:51.491Z,14.03
2019-03-24T04:24:22.313Z,16.10
2019-03-24T04:26:52.800Z,15.50
2019-03-24T04:29:23.322Z,15.17
2019-03-24T04:31:53.834Z,15.97
2019-03-24T04:34:24.627Z,16.70
2019-03-24T04:36:55.149Z,16.73
2019-03-24T04:39:25.626Z,16.43
2019-03-24T04:41:56.135Z,16.40
2019-03-24T04:44:26.732Z,15.53
2019-03-24T04:46:57.208Z,15.87
2019-03-24T04:49:27.725Z,15.57
2019-03-24T04:51:59.286Z,16.70
2019-03-24T04:54:29.985Z,17.03
2019-03-24T04:57:00.576Z,17.17
2019-03-24T04:59:31.117Z,17.37
2019-03-24T05:02:01.710Z,17.10
2019-03-24T05:04:32.319Z,17.47
2019-03-24T05:07:02.862Z,16.43
2019-03-24T05:09:33.362Z,18.57
2019-03-24T05:12:03.862Z,15.83
2019-03-24T05:14:34.443Z,18.07
2019-03-24T05:17:04.979Z,17.50
2019-03-24T05:19:35.425Z,19.60
2019-03-24T05:22:05.893Z,17.93
2019-03-24T05:24:36.766Z,18.60
2019-03-24T05:27:07.594Z,18.67
2019-03-24T05:29:37.947Z,18.20
2019-03-24T05:32:08.453Z,18.47
2019-03-24T05:34:39.271Z,18.03
2019-03-24T05:37:10.711Z,19.00
2019-03-24T05:39:41.566Z,18.00
2019-03-24T05:42:12.379Z,18.10
2019-03-24T05:44:43.036Z,19.03
2019-03-24T05:47:13.538Z,19.03
2019-03-24T05:49:44.058Z,19.47
2019-03-24T05:52:14.602Z,19.00
2019-03-24T05:54:45.064Z,19.17
2019-03-24T05:57:17.532Z,19.03
2019-03-24T05:59:48.014Z,19.20
2019-03-24T06:02:18.802Z,19.23
2019-03-24T06:04:49.314Z,21.17
2019-03-24T06:07:21.041Z,20.13
2019-03-24T06:09:51.535Z,19.07
2019-03-24T06:12:22.052Z,19.53
2019-03-24T06:14:52.582Z,18.70
2019-03-24T06:17:23.069Z,18.80
2019-03-24T06:19:53.587Z,19.17
2019-03-24T06:22:24.150Z,20.50
2019-03-24T06:24:54.681Z,18.97
2019-03-24T06:27:26.017Z,21.00
2019-03-24T06:29:56.507Z,20.80
2019-03-24T06:32:27.000Z,19.00
2019-03-24T06:34:57.564Z,20.70
2019-03-24T06:37:28.146Z,21.47
2019-03-24T06:39:58.963Z,19.40
2019-03-24T06:42:29.944Z,20.73
2019-03-24T06:45:01.061Z,19.77
2019-03-24T06:47:31.608Z,20.80
2019-03-24T06:50:02.577Z,22.03
2019-03-24T06:52:33.245Z,20.60
2019-03-24T06:55:04.469Z,20.73
2019-03-24T06:57:35.065Z,20.93
2019-03-24T07:00:06.191Z,22.03
2019-03-24T07:02:37.131Z,20.73
2019-03-24T07:05:09.183Z,20.50
2019-03-24T07:07:40.010Z,20.60
2019-03-24T07:10:11.136Z,21.47
2019-03-24T07:12:41.825Z,21.70
2019-03-24T07:15:14.785Z,20.50
2019-03-24T07:17:45.584Z,22.20
2019-03-24T07:20:16.142Z,22.33
2019-03-24T07:22:46.846Z,21.03
2019-03-24T07:25:17.476Z,22.13
2019-03-24T07:27:47.996Z,21.20
2019-03-24T07:30:19.970Z,22.50
2019-03-24T07:32:50.566Z,21.43
2019-03-24T07:35:22.172Z,21.67
2019-03-24T07:37:52.739Z,21.73
2019-03-24T07:40:23.756Z,22.63
2019-03-24T07:42:54.247Z,21.27
2019-03-24T07:45:24.841Z,22.23
2019-03-24T07:47:56.762Z,19.43
2019-03-24T07:50:27.600Z,19.27
2019-03-24T07:52:58.387Z,19.23
2019-03-24T07:55:28.822Z,15.47
2019-03-24T07:57:59.712Z,17.00
2019-03-24T08:00:35.157Z,16.43
2019-03-24T08:03:05.816Z,15.00
2019-03-24T08:05:36.372Z,16.53
2019-03-24T08:08:07.649Z,16.03
2019-03-24T08:10:38.159Z,16.47
2019-03-24T08:13:08.565Z,16.73
2019-03-24T08:15:39.154Z,16.63
2019-03-24T08:18:09.727Z,17.13
2019-03-24T08:20:40.218Z,16.17
2019-03-24T08:23:10.694Z,15.73
2019-03-24T08:25:41.671Z,16.20
2019-03-24T08:28:12.729Z,18.87
2019-03-24T08:30:43.228Z,18.77
2019-03-24T08:33:15.032Z,19.70
2019-03-24T08:35:45.542Z,17.30
2019-03-24T08:38:16.935Z,17.93
2019-03-24T08:40:47.435Z,17.57
2019-03-24T08:43:18.015Z,16.97
2019-03-24T08:45:48.788Z,16.63
2019-03-24T08:48:19.319Z,18.83
2019-03-24T08:50:49.745Z,16.80
2019-03-24T08:53:20.472Z,19.13
2019-03-24T08:55:50.906Z,18.50
2019-03-24T08:58:21.922Z,19.00
2019-03-24T09:00:52.880Z,18.43
2019-03-24T09:03:23.708Z,19.27
2019-03-24T09:05:54.573Z,19.03
2019-03-24T09:08:25.065Z,19.33
2019-03-24T09:10:55.594Z,18.63
2019-03-24T09:13:26.631Z,19.73
2019-03-24T09:15:57.399Z,21.07
2019-03-24T09:18:27.894Z,19.50
2019-03-24T09:20:58.446Z,18.30
2019-03-24T09:23:29.082Z,18.60
2019-03-24T09:25:59.974Z,20.47
2019-03-24T09:28:30.489Z,19.10
2019-03-24T09:31:00.975Z,18.67
2019-03-24T09:33:32.915Z,18.33
2019-03-24T09:36:03.494Z,18.33
2019-03-24T09:38:34.000Z,18.20
2019-03-24T09:41:05.455Z,16.73
2019-03-24T09:43:36.302Z,18.83
2019-03-24T09:46:07.114Z,16.90
2019-03-24T09:48:37.926Z,14.50
2019-03-24T09:51:09.399Z,15.43
2019-03-24T09:53:39.833Z,16.07
2019-03-24T09:56:10.381Z,16.73
2019-03-24T09:58:41.848Z,14.57
2019-03-24T10:01:12.351Z,17.00
2019-03-24T10:03:42.751Z,14.03
2019-03-24T10:06:13.376Z,13.73
2019-03-24T10:08:47.200Z,13.07
2019-03-24T10:11:17.625Z,13.47
2019-03-24T10:13:48.281Z,12.93
2019-03-24T10:16:18.720Z,11.57
2019-03-24T10:18:49.117Z,11.13
2019-03-24T10:21:19.713Z,10.93
2019-03-24T10:23:50.782Z,10.10
2019-03-24T10:26:21.476Z,10.63
2019-03-24T10:28:52.121Z,9.67
2019-03-24T10:31:22.862Z,9.53
2019-03-24T10:33:53.287Z,9.63
2019-03-24T10:36:24.049Z,9.47
2019-03-24T10:38:54.409Z,10.83
2019-03-24T10:41:25.176Z,10.27
2019-03-24T10:43:55.835Z,9.70
2019-03-24T10:46:26.327Z,11.03
2019-03-24T10:48:57.046Z,9.77
2019-03-24T10:51:27.504Z,9.00
2019-03-24T10:53:58.049Z,9.10
2019-03-24T10:56:28.782Z,8.57
2019-03-24T10:58:59.250Z,9.47
2019-03-24T11:01:29.927Z,8.97
2019-03-24T11:04:00.283Z,9.07
2019-03-24T11:06:31.147Z,8.57
2019-03-24T11:09:02.069Z,8.97
2019-03-24T11:11:35.535Z,7.90
2019-03-24T11:14:06.059Z,8.50
2019-03-24T11:16:36.944Z,8.23
2019-03-24T11:19:07.413Z,8.13
2019-03-24T11:21:37.916Z,8.07
2019-03-24T11:24:12.288Z,8.20
2019-03-24T11:26:42.959Z,7.87
2019-03-24T11:29:13.408Z,8.50
2019-03-24T11:31:44.876Z,8.83
2019-03-24T11:34:16.779Z,8.33
2019-03-24T11:36:48.016Z,8.23
2019-03-24T11:39:19.363Z,7.67
2019-03-24T11:41:49.971Z,7.77
2019-03-24T11:44:20.642Z,7.73
2019-03-24T11:46:51.162Z,8.33
2019-03-24T11:49:21.669Z,8.93
2019-03-24T11:51:52.185Z,7.80
2019-03-24T11:54:22.694Z,7.60
2019-03-24T11:56:53.534Z,7.47
2019-03-24T11:59:24.060Z,7.13
2019-03-24T12:01:54.653Z,7.07
2019-03-24T12:04:25.184Z,7.60
2019-03-24T12:06:55.693Z,6.40
2019-03-24T12:09:26.180Z,6.00
2019-03-24T12:11:57.058Z,5.47
2019-03-24T12:14:27.567Z,5.30
2019-03-24T12:16:59.162Z,4.70
2019-03-24T12:19:29.709Z,5.70
2019-03-24T12:22:01.671Z,5.53
2019-03-24T12:24:32.527Z,6.37
2019-03-24T12:27:06.110Z,7.10
2019-03-24T12:29:36.703Z,6.73
2019-03-24T12:32:07.221Z,7.27
2019-03-24T12:34:38.115Z,8.30
2019-03-24T12:37:08.600Z,8.27
2019-03-24T12:39:39.016Z,8.57
2019-03-24T12:42:10.611Z,9.63
2019-03-24T12:44:41.549Z,8.43
2019-03-24T12:47:12.160Z,8.20
2019-03-24T12:49:42.643Z,7.60
2019-03-24T12:52:13.342Z,7.57
2019-03-24T12:54:43.972Z,8.10
2019-03-24T12:57:14.572Z,7.47
2019-03-24T12:59:45.465Z,7.43
2019-03-24T13:02:15.914Z,6.30
2019-03-24T13:04:46.594Z,6.90
2019-03-24T13:07:17.097Z,4.40
2019-03-24T13:09:47.879Z,4.67
2019-03-24T13:12:18.414Z,4.03
2019-03-24T13:14:49.503Z,3.57
2019-03-24T13:17:20.804Z,3.90
2019-03-24T13:19:51.532Z,3.33
2019-03-24T13:22:21.907Z,3.33
2019-03-24T13:24:52.697Z,4.40
2019-03-24T13:27:23.258Z,3.73
2019-03-24T13:29:54.245Z,4.07
2019-03-24T13:32:25.617Z,4.47
2019-03-24T13:34:56.117Z,4.10
2019-03-24T13:37:27.384Z,3.90
2019-03-24T13:39:58.456Z,3.63
2019-03-24T13:42:29.103Z,3.70
2019-03-24T13:44:59.540Z,3.97
2019-03-24T13:47:30.125Z,3.40
2019-03-24T13:50:00.729Z,3.60
2019-03-24T13:52:31.277Z,3.63
2019-03-24T13:55:01.972Z,3.00
2019-03-24T13:57:32.532Z,3.07
2019-03-24T14:00:02.988Z,3.07
2019-03-24T14:02:35.183Z,3.50
2019-03-24T14:05:06.078Z,3.00
2019-03-24T14:07:36.665Z,3.97
2019-03-24T14:10:07.623Z,3.40
2019-03-24T14:12:39.402Z,2.10
2019-03-24T14:15:10.354Z,3.43
2019-03-24T14:17:40.890Z,3.07
2019-03-24T14:20:12.004Z,2.67
2019-03-24T14:22:42.553Z,2.83
2019-03-24T14:25:13.470Z,2.70
2019-03-24T14:27:43.938Z,2.17
2019-03-24T14:30:14.762Z,3.53
2019-03-24T14:32:45.260Z,2.27
2019-03-24T14:35:16.608Z,2.80
2019-03-24T14:37:47.580Z,2.27
2019-03-24T14:40:18.229Z,2.47
2019-03-24T14:42:48.681Z,2.63
2019-03-24T14:45:19.094Z,2.30
2019-03-24T14:47:49.668Z,2.60
2019-03-24T14:50:20.193Z,2.60
2019-03-24T14:52:50.642Z,2.43
2019-03-24T14:55:21.168Z,2.37
2019-03-24T14:57:51.919Z,2.87
2019-03-24T15:00:31.030Z,2.50
2019-03-24T15:03:01.573Z,2.13
2019-03-24T15:05:32.090Z,2.87
2019-03-24T15:08:03.315Z,2.40
2019-03-24T15:10:34.817Z,2.10
2019-03-24T15:13:06.356Z,1.70
2019-03-24T15:15:37.359Z,1.80
2019-03-24T15:18:07.894Z,1.77
2019-03-24T15:20:38.380Z,1.97
2019-03-24T15:23:08.895Z,1.87
2019-03-24T15:25:39.387Z,1.80
2019-03-24T15:28:09.964Z,1.90
2019-03-24T15:30:40.445Z,2.00
2019-03-24T15:33:10.942Z,1.93
2019-03-24T15:35:41.842Z,1.77
2019-03-24T15:38:15.083Z,1.43
2019-03-24T15:40:49.440Z,2.50
2019-03-24T15:43:19.467Z,2.27
2019-03-24T15:45:55.924Z,2.37
2019-03-24T15:48:26.412Z,1.97
2019-03-24T15:51:00.395Z,1.83
2019-03-24T15:53:31.022Z,2.20
2019-03-24T15:56:01.591Z,1.80
2019-03-24T15:58:32.088Z,1.97
2019-03-24T16:01:02.908Z,1.50
2019-03-24T16:03:33.857Z,1.80
2019-03-24T16:06:05.405Z,2.73
2019-03-24T16:08:36.030Z,2.20
2019-03-24T16:11:06.607Z,1.50
2019-03-24T16:13:37.251Z,1.90
2019-03-24T16:16:07.734Z,2.00
2019-03-24T16:18:38.323Z,2.03
2019-03-24T16:21:09.128Z,2.10
2019-03-24T16:23:40.073Z,2.57
2019-03-24T16:26:11.530Z,2.57
2019-03-24T16:28:42.370Z,3.23
2019-03-24T16:31:12.924Z,2.53
2019-03-24T16:33:43.456Z,2.00
2019-03-24T16:36:14.046Z,2.17
2019-03-24T16:38:49.026Z,2.10
2019-03-24T16:41:17.278Z,2.40
2019-03-24T16:43:47.843Z,2.03
2019-03-24T16:46:19.452Z,1.90
2019-03-24T16:48:50.200Z,2.10
2019-03-24T16:51:21.007Z,1.37
2019-03-24T16:53:51.608Z,1.53
2019-03-24T16:56:22.053Z,1.50
2019-03-24T16:58:53.454Z,1.40
2019-03-24T17:01:23.990Z,1.40
2019-03-24T17:03:55.801Z,1.63
2019-03-24T17:06:27.499Z,1.20
2019-03-24T17:08:58.498Z,2.20
2019-03-24T17:11:28.981Z,1.53
2019-03-24T17:13:59.489Z,1.77
2019-03-24T17:16:29.975Z,1.20
2019-03-24T17:19:00.708Z,1.63
2019-03-24T17:21:32.473Z,1.87
2019-03-24T17:24:02.915Z,1.60
2019-03-24T17:26:33.388Z,1.70
2019-03-24T17:29:04.313Z,2.20
2019-03-24T17:31:35.095Z,2.10
2019-03-24T17:34:05.715Z,1.77
2019-03-24T17:36:36.161Z,1.57
2019-03-24T17:39:08.376Z,1.50
2019-03-24T17:41:39.148Z,1.70
2019-03-24T17:44:09.767Z,1.27
2019-03-24T17:46:40.281Z,1.90
2019-03-24T17:49:10.799Z,1.50
2019-03-24T17:51:41.464Z,1.50
2019-03-24T17:54:12.125Z,2.07
2019-03-24T17:56:43.050Z,1.77
2019-03-24T17:59:14.555Z,1.90
2019-03-24T18:01:45.157Z,1.87
2019-03-24T18:04:24.838Z,2.10
2019-03-24T18:06:51.365Z,2.27
2019-03-24T18:09:21.862Z,1.90
2019-03-24T18:11:53.937Z,2.50
2019-03-24T18:14:24.583Z,1.90
2019-03-24T18:16:55.115Z,1.70
2019-03-24T18:19:25.603Z,2.10
2019-03-24T18:21:55.990Z,1.80
2019-03-24T18:24:26.494Z,2.10
2019-03-24T18:26:56.976Z,3.07
2019-03-24T18:29:27.582Z,1.93
2019-03-24T18:31:57.983Z,2.20
2019-03-24T18:34:28.474Z,2.43
2019-03-24T18:36:59.393Z,2.47
2019-03-24T18:39:29.824Z,2.17
2019-03-24T18:42:00.413Z,2.30
2019-03-24T18:44:31.311Z,2.10
2019-03-24T18:47:01.955Z,3.00
2019-03-24T18:49:32.390Z,2.47
2019-03-24T18:52:02.926Z,2.50
2019-03-24T18:54:34.594Z,2.40
2019-03-24T18:57:05.226Z,2.23
2019-03-24T18:59:35.767Z,2.50
2019-03-24T19:02:06.552Z,2.57
2019-03-24T19:04:37.022Z,2.30
2019-03-24T19:07:07.488Z,2.30
2019-03-24T19:09:38.025Z,2.30
2019-03-24T19:12:08.519Z,2.50
2019-03-24T19:14:40.185Z,2.30
2019-03-24T19:17:10.793Z,2.37
2019-03-24T19:19:43.637Z,2.60
2019-03-24T19:22:14.224Z,2.57
2019-03-24T19:24:45.067Z,2.47
2019-03-24T19:27:15.771Z,3.00
2019-03-24T19:29:46.402Z,2.70
2019-03-24T19:32:17.059Z,3.27
2019-03-24T19:34:48.964Z,2.67
2019-03-24T19:37:20.074Z,3.00
2019-03-24T19:39:50.960Z,3.00
2019-03-24T19:42:21.410Z,7.30
2019-03-24T19:44:52.030Z,5.90
2019-03-24T19:47:22.631Z,3.80
2019-03-24T19:49:53.430Z,2.80
2019-03-24T19:52:23.942Z,3.27
2019-03-24T19:54:54.453Z,8.63
2019-03-24T19:57:24.932Z,3.60
2019-03-24T19:59:55.369Z,3.13
2019-03-24T20:02:25.789Z,3.73
2019-03-24T20:04:56.252Z,2.90
2019-03-24T20:07:26.744Z,3.70
2019-03-24T20:09:57.262Z,2.23
2019-03-24T20:12:27.832Z,3.17
2019-03-24T20:14:58.349Z,2.60
2019-03-24T20:17:28.895Z,2.73
2019-03-24T20:19:59.677Z,2.97
2019-03-24T20:22:30.171Z,2.70
2019-03-24T20:25:01.415Z,2.80
2019-03-24T20:27:31.834Z,2.20
2019-03-24T20:30:02.387Z,2.60
2019-03-24T20:32:34.430Z,2.73
2019-03-24T20:35:06.010Z,2.70
2019-03-24T20:37:36.735Z,2.80
2019-03-24T20:40:07.927Z,3.13
2019-03-24T20:42:38.657Z,2.90
2019-03-24T20:45:13.066Z,3.73
2019-03-24T20:47:43.659Z,3.70
2019-03-24T20:50:14.502Z,3.20
2019-03-24T20:52:45.031Z,3.70
2019-03-24T20:55:15.630Z,3.57
2019-03-24T20:57:46.210Z,3.60
2019-03-24T21:00:18.725Z,3.40
2019-03-24T21:02:49.396Z,3.23
2019-03-24T21:05:20.142Z,2.93
2019-03-24T21:07:51.096Z,2.87
2019-03-24T21:10:24.028Z,3.83
2019-03-24T21:12:53.757Z,3.83
2019-03-24T21:15:24.353Z,3.73
2019-03-24T21:17:55.465Z,3.47
2019-03-24T21:20:25.869Z,3.50
2019-03-24T21:22:57.743Z,3.87
2019-03-24T21:25:28.281Z,3.77
2019-03-24T21:27:59.316Z,3.90
2019-03-24T21:30:38.212Z,4.30
2019-03-24T21:33:08.803Z,3.20
2019-03-24T21:35:39.754Z,3.80
2019-03-24T21:38:10.635Z,4.27
2019-03-24T21:40:41.479Z,3.60
2019-03-24T21:43:12.249Z,3.50
2019-03-24T21:45:42.756Z,3.30
2019-03-24T21:48:13.209Z,4.10
2019-03-24T21:50:43.735Z,4.50
2019-03-24T21:53:14.127Z,3.90
2019-03-24T21:55:44.920Z,3.90
2019-03-24T21:58:15.431Z,3.90
2019-03-24T22:00:46.267Z,4.20
2019-03-24T22:03:16.691Z,4.03
2019-03-24T22:05:47.229Z,6.10
2019-03-24T22:08:17.726Z,4.63
2019-03-24T22:10:48.256Z,4.10
2019-03-24T22:13:18.851Z,4.17
2019-03-24T22:15:49.628Z,3.73
2019-03-24T22:18:19.950Z,4.20
2019-03-24T22:20:50.487Z,4.40
2019-03-24T22:23:20.997Z,4.50
2019-03-24T22:25:51.581Z,4.33
2019-03-24T22:28:22.071Z,7.60
2019-03-24T22:30:52.606Z,4.13
2019-03-24T22:33:23.143Z,3.93
2019-03-24T22:35:53.673Z,5.50
2019-03-24T22:38:24.156Z,3.90
2019-03-24T22:40:55.435Z,3.70
2019-03-24T22:43:26.164Z,5.10
2019-03-24T22:45:56.733Z,4.30
2019-03-24T22:48:27.547Z,5.10
2019-03-24T22:50:58.093Z,11.80
2019-03-24T22:53:28.498Z,5.20
2019-03-24T22:55:59.052Z,3.93
2019-03-24T22:58:29.811Z,4.10
2019-03-24T23:01:02.736Z,4.20
2019-03-24T23:03:34.922Z,4.00
2019-03-24T23:06:07.067Z,3.43
2019-03-24T23:08:37.512Z,3.80
2019-03-24T23:11:08.102Z,4.47
2019-03-24T23:13:38.593Z,4.47
2019-03-24T23:16:09.144Z,4.17
2019-03-24T23:18:39.725Z,3.97
2019-03-24T23:21:11.949Z,4.30
2019-03-24T23:23:42.442Z,3.63
2019-03-24T23:26:13.731Z,3.23
2019-03-24T23:28:44.762Z,3.43
2019-03-24T23:31:15.236Z,4.43
2019-03-24T23:33:46.222Z,4.30
2019-03-24T23:36:16.680Z,3.83
2019-03-24T23:38:47.150Z,4.23
2019-03-24T23:41:17.775Z,4.23
2019-03-24T23:43:48.362Z,4.10
2019-03-24T23:46:19.174Z,4.50
2019-03-24T23:48:49.677Z,4.63
2019-03-24T23:51:20.178Z,4.33
2019-03-24T23:53:50.613Z,4.07
2019-03-24T23:56:21.190Z,4.20
2019-03-24T23:58:52.155Z,4.47
